sensor_id;sensor_type;location;lat;lon;timestamp;temperature;humidity
30280;DHT22;17097;50.916;5.344;2023-03-14T00:00:04;11.90;99.90
30280;DHT22;17097;50.916;5.344;2023-03-14T00:02:31;11.80;99.90
30280;DHT22;17097;50.916;5.344;2023-03-14T00:04:59;11.90;99.90
30280;DHT22;17097;50.916;5.344;2023-03-14T00:07:24;11.90;99.90
30280;DHT22;17097;50.916;5.344;2023-03-14T00:09:51;11.90;99.90
30280;DHT22;17097;50.916;5.344;2023-03-14T00:12:17;11.90;99.90
30280;DHT22;17097;50.916;5.344;2023-03-14T00:14:42;11.70;99.90
30280;DHT22;17097;50.916;5.344;2023-03-14T00:17:09;11.70;99.90
30280;DHT22;17097;50.916;5.344;2023-03-14T00:19:35;11.70;99.90
30280;DHT22;17097;50.916;5.344;2023-03-14T00:22:03;11.70;99.90
30280;DHT22;17097;50.916;5.344;2023-03-14T00:24:29;11.70;99.90
30280;DHT22;17097;50.916;5.344;2023-03-14T00:26:55;11.70;99.90
30280;DHT22;17097;50.916;5.344;2023-03-14T00:29:21;11.80;99.90
30280;DHT22;17097;50.916;5.344;2023-03-14T00:31:46;11.80;99.90
30280;DHT22;17097;50.916;5.344;2023-03-14T00:34:12;11.80;99.90
30280;DHT22;17097;50.916;5.344;2023-03-14T00:36:38;11.80;99.90
30280;DHT22;17097;50.916;5.344;2023-03-14T00:39:04;11.70;99.90
30280;DHT22;17097;50.916;5.344;2023-03-14T00:41:30;11.80;99.90
30280;DHT22;17097;50.916;5.344;2023-03-14T00:43:58;11.60;99.90
30280;DHT22;17097;50.916;5.344;2023-03-14T00:46:24;11.70;99.90
30280;DHT22;17097;50.916;5.344;2023-03-14T00:48:50;11.70;99.90
30280;DHT22;17097;50.916;5.344;2023-03-14T00:51:17;11.70;99.90
30280;DHT22;17097;50.916;5.344;2023-03-14T00:53:43;11.70;99.90
30280;DHT22;17097;50.916;5.344;2023-03-14T00:56:11;11.90;99.90
30280;DHT22;17097;50.916;5.344;2023-03-14T00:58:38;11.90;99.90
30280;DHT22;17097;50.916;5.344;2023-03-14T01:01:12;11.80;99.90
30280;DHT22;17097;50.916;5.344;2023-03-14T01:03:40;11.70;99.90
30280;DHT22;17097;50.916;5.344;2023-03-14T01:06:08;11.70;99.90
30280;DHT22;17097;50.916;5.344;2023-03-14T01:08:34;11.70;99.90
30280;DHT22;17097;50.916;5.344;2023-03-14T01:11:09;11.80;99.90
30280;DHT22;17097;50.916;5.344;2023-03-14T01:13:38;11.90;99.90
30280;DHT22;17097;50.916;5.344;2023-03-14T01:16:09;11.90;99.90
30280;DHT22;17097;50.916;5.344;2023-03-14T01:18:37;11.80;99.90
30280;DHT22;17097;50.916;5.344;2023-03-14T01:21:09;11.80;99.90
30280;DHT22;17097;50.916;5.344;2023-03-14T01:23:35;11.90;99.90
30280;DHT22;17097;50.916;5.344;2023-03-14T01:26:04;11.80;99.90
30280;DHT22;17097;50.916;5.344;2023-03-14T01:28:30;11.80;99.90
30280;DHT22;17097;50.916;5.344;2023-03-14T01:31:03;11.80;99.90
30280;DHT22;17097;50.916;5.344;2023-03-14T01:33:29;11.90;99.90
30280;DHT22;17097;50.916;5.344;2023-03-14T01:35:57;11.80;99.90
30280;DHT22;17097;50.916;5.344;2023-03-14T01:38:23;11.70;99.90
30280;DHT22;17097;50.916;5.344;2023-03-14T01:40:49;11.70;99.90
30280;DHT22;17097;50.916;5.344;2023-03-14T01:43:18;11.70;99.90
30280;DHT22;17097;50.916;5.344;2023-03-14T01:48:40;11.90;99.90
30280;DHT22;17097;50.916;5.344;2023-03-14T01:51:13;12.00;99.90
30280;DHT22;17097;50.916;5.344;2023-03-14T01:53:47;11.80;99.90
30280;DHT22;17097;50.916;5.344;2023-03-14T01:56:19;11.80;99.90
30280;DHT22;17097;50.916;5.344;2023-03-14T01:58:47;11.80;99.90
30280;DHT22;17097;50.916;5.344;2023-03-14T02:01:16;11.90;99.90
30280;DHT22;17097;50.916;5.344;2023-03-14T02:03:47;11.80;99.90
30280;DHT22;17097;50.916;5.344;2023-03-14T02:06:17;11.70;99.90
30280;DHT22;17097;50.916;5.344;2023-03-14T02:08:47;11.90;99.90
30280;DHT22;17097;50.916;5.344;2023-03-14T02:11:15;11.90;99.90
30280;DHT22;17097;50.916;5.344;2023-03-14T02:13:44;12.00;99.90
30280;DHT22;17097;50.916;5.344;2023-03-14T02:16:10;11.90;99.90
30280;DHT22;17097;50.916;5.344;2023-03-14T02:18:36;11.90;99.90
30280;DHT22;17097;50.916;5.344;2023-03-14T02:26:30;11.70;99.90
30280;DHT22;17097;50.916;5.344;2023-03-14T02:28:57;11.60;99.90
30280;DHT22;17097;50.916;5.344;2023-03-14T02:31:23;11.60;99.90
30280;DHT22;17097;50.916;5.344;2023-03-14T02:33:51;11.50;99.90
30280;DHT22;17097;50.916;5.344;2023-03-14T02:36:17;11.60;99.90
30280;DHT22;17097;50.916;5.344;2023-03-14T02:39:14;11.70;99.90
30280;DHT22;17097;50.916;5.344;2023-03-14T02:41:41;11.70;99.90
30280;DHT22;17097;50.916;5.344;2023-03-14T02:44:07;11.60;99.90
30280;DHT22;17097;50.916;5.344;2023-03-14T02:46:33;11.60;99.90
30280;DHT22;17097;50.916;5.344;2023-03-14T02:49:08;11.50;99.90
30280;DHT22;17097;50.916;5.344;2023-03-14T02:51:38;11.40;99.90
30280;DHT22;17097;50.916;5.344;2023-03-14T02:54:05;11.40;99.90
30280;DHT22;17097;50.916;5.344;2023-03-14T02:56:31;11.50;99.90
30280;DHT22;17097;50.916;5.344;2023-03-14T02:58:57;11.50;99.90
30280;DHT22;17097;50.916;5.344;2023-03-14T03:01:25;11.50;99.90
30280;DHT22;17097;50.916;5.344;2023-03-14T03:03:52;11.50;99.90
30280;DHT22;17097;50.916;5.344;2023-03-14T03:06:18;11.50;99.90
30280;DHT22;17097;50.916;5.344;2023-03-14T03:08:44;11.30;99.90
30280;DHT22;17097;50.916;5.344;2023-03-14T03:11:10;11.40;99.90
30280;DHT22;17097;50.916;5.344;2023-03-14T03:13:36;11.40;99.90
30280;DHT22;17097;50.916;5.344;2023-03-14T03:16:02;11.40;99.90
30280;DHT22;17097;50.916;5.344;2023-03-14T03:18:28;11.40;99.90
30280;DHT22;17097;50.916;5.344;2023-03-14T03:21:00;11.50;99.90
30280;DHT22;17097;50.916;5.344;2023-03-14T03:23:26;11.30;99.90
30280;DHT22;17097;50.916;5.344;2023-03-14T03:25:52;11.40;99.90
30280;DHT22;17097;50.916;5.344;2023-03-14T03:28:19;11.30;99.90
30280;DHT22;17097;50.916;5.344;2023-03-14T03:30:45;11.30;99.90
30280;DHT22;17097;50.916;5.344;2023-03-14T03:33:12;11.20;99.90
30280;DHT22;17097;50.916;5.344;2023-03-14T03:35:46;11.00;99.90
30280;DHT22;17097;50.916;5.344;2023-03-14T03:38:13;10.90;99.90
30280;DHT22;17097;50.916;5.344;2023-03-14T03:40:39;10.90;99.90
30280;DHT22;17097;50.916;5.344;2023-03-14T03:43:05;11.00;99.90
30280;DHT22;17097;50.916;5.344;2023-03-14T03:45:31;11.00;99.90
30280;DHT22;17097;50.916;5.344;2023-03-14T03:47:57;11.00;99.90
30280;DHT22;17097;50.916;5.344;2023-03-14T03:50:23;10.80;99.90
30280;DHT22;17097;50.916;5.344;2023-03-14T03:52:49;10.70;99.90
30280;DHT22;17097;50.916;5.344;2023-03-14T03:55:15;10.80;99.90
30280;DHT22;17097;50.916;5.344;2023-03-14T03:57:41;10.90;99.90
30280;DHT22;17097;50.916;5.344;2023-03-14T04:00:07;11.10;99.90
30280;DHT22;17097;50.916;5.344;2023-03-14T04:02:36;11.20;99.90
30280;DHT22;17097;50.916;5.344;2023-03-14T04:05:02;11.10;99.90
30280;DHT22;17097;50.916;5.344;2023-03-14T04:07:31;10.90;99.90
30280;DHT22;17097;50.916;5.344;2023-03-14T04:09:57;10.90;99.90
30280;DHT22;17097;50.916;5.344;2023-03-14T04:12:25;10.70;99.90
30280;DHT22;17097;50.916;5.344;2023-03-14T04:14:50;10.80;99.90
30280;DHT22;17097;50.916;5.344;2023-03-14T04:17:16;10.90;99.90
30280;DHT22;17097;50.916;5.344;2023-03-14T04:19:43;10.90;99.90
30280;DHT22;17097;50.916;5.344;2023-03-14T04:22:11;10.90;99.90
30280;DHT22;17097;50.916;5.344;2023-03-14T04:24:37;10.90;99.90
30280;DHT22;17097;50.916;5.344;2023-03-14T04:27:03;10.80;99.90
30280;DHT22;17097;50.916;5.344;2023-03-14T04:29:29;10.80;99.90
30280;DHT22;17097;50.916;5.344;2023-03-14T04:31:55;10.60;99.90
30280;DHT22;17097;50.916;5.344;2023-03-14T04:34:21;10.50;99.90
30280;DHT22;17097;50.916;5.344;2023-03-14T04:36:47;10.50;99.90
30280;DHT22;17097;50.916;5.344;2023-03-14T04:39:13;10.60;99.90
30280;DHT22;17097;50.916;5.344;2023-03-14T04:41:41;10.60;99.90
30280;DHT22;17097;50.916;5.344;2023-03-14T04:44:06;10.60;99.90
30280;DHT22;17097;50.916;5.344;2023-03-14T04:46:32;10.50;99.90
30280;DHT22;17097;50.916;5.344;2023-03-14T04:48:58;10.50;99.90
30280;DHT22;17097;50.916;5.344;2023-03-14T04:51:27;10.60;99.90
30280;DHT22;17097;50.916;5.344;2023-03-14T04:53:54;10.60;99.90
30280;DHT22;17097;50.916;5.344;2023-03-14T04:56:20;10.60;99.90
30280;DHT22;17097;50.916;5.344;2023-03-14T04:58:46;10.60;99.90
30280;DHT22;17097;50.916;5.344;2023-03-14T05:01:12;10.50;99.90
30280;DHT22;17097;50.916;5.344;2023-03-14T05:03:38;10.50;99.90
30280;DHT22;17097;50.916;5.344;2023-03-14T05:06:04;10.60;99.90
30280;DHT22;17097;50.916;5.344;2023-03-14T05:08:32;10.70;99.90
30280;DHT22;17097;50.916;5.344;2023-03-14T05:11:01;10.60;99.90
30280;DHT22;17097;50.916;5.344;2023-03-14T05:13:28;10.60;99.90
30280;DHT22;17097;50.916;5.344;2023-03-14T05:16:03;10.60;99.90
30280;DHT22;17097;50.916;5.344;2023-03-14T05:18:29;10.50;99.90
30280;DHT22;17097;50.916;5.344;2023-03-14T05:20:55;10.50;99.90
30280;DHT22;17097;50.916;5.344;2023-03-14T05:23:22;10.50;99.90
30280;DHT22;17097;50.916;5.344;2023-03-14T05:25:47;10.50;99.90
30280;DHT22;17097;50.916;5.344;2023-03-14T05:28:13;10.70;99.90
30280;DHT22;17097;50.916;5.344;2023-03-14T05:30:39;10.70;99.90
30280;DHT22;17097;50.916;5.344;2023-03-14T05:33:04;10.70;99.90
30280;DHT22;17097;50.916;5.344;2023-03-14T05:35:31;10.50;99.90
30280;DHT22;17097;50.916;5.344;2023-03-14T05:37:56;10.60;99.90
30280;DHT22;17097;50.916;5.344;2023-03-14T05:40:22;10.70;99.90
30280;DHT22;17097;50.916;5.344;2023-03-14T05:42:48;10.70;99.90
30280;DHT22;17097;50.916;5.344;2023-03-14T05:45:14;10.70;99.90
30280;DHT22;17097;50.916;5.344;2023-03-14T05:47:42;10.80;99.90
30280;DHT22;17097;50.916;5.344;2023-03-14T05:50:11;10.80;99.90
30280;DHT22;17097;50.916;5.344;2023-03-14T05:52:37;10.70;99.90
30280;DHT22;17097;50.916;5.344;2023-03-14T05:55:06;10.70;99.90
30280;DHT22;17097;50.916;5.344;2023-03-14T05:57:32;10.90;99.90
30280;DHT22;17097;50.916;5.344;2023-03-14T05:59:58;10.80;99.90
30280;DHT22;17097;50.916;5.344;2023-03-14T06:02:24;10.80;99.90
30280;DHT22;17097;50.916;5.344;2023-03-14T06:04:50;10.90;99.90
30280;DHT22;17097;50.916;5.344;2023-03-14T06:07:18;10.80;99.90
30280;DHT22;17097;50.916;5.344;2023-03-14T06:09:46;11.00;99.90
30280;DHT22;17097;50.916;5.344;2023-03-14T06:12:12;10.90;99.90
30280;DHT22;17097;50.916;5.344;2023-03-14T06:14:38;11.00;99.90
30280;DHT22;17097;50.916;5.344;2023-03-14T06:17:04;11.00;99.90
30280;DHT22;17097;50.916;5.344;2023-03-14T06:19:30;10.80;99.90
30280;DHT22;17097;50.916;5.344;2023-03-14T06:21:56;10.80;99.90
30280;DHT22;17097;50.916;5.344;2023-03-14T06:24:24;10.80;99.90
30280;DHT22;17097;50.916;5.344;2023-03-14T06:26:50;10.90;99.90
30280;DHT22;17097;50.916;5.344;2023-03-14T06:29:16;11.10;99.90
30280;DHT22;17097;50.916;5.344;2023-03-14T06:31:42;11.00;99.90
30280;DHT22;17097;50.916;5.344;2023-03-14T06:34:10;11.00;99.90
30280;DHT22;17097;50.916;5.344;2023-03-14T06:36:36;10.90;99.90
30280;DHT22;17097;50.916;5.344;2023-03-14T06:39:02;11.00;99.90
30280;DHT22;17097;50.916;5.344;2023-03-14T06:41:28;11.10;99.90
30280;DHT22;17097;50.916;5.344;2023-03-14T06:43:57;11.10;99.90
30280;DHT22;17097;50.916;5.344;2023-03-14T06:46:24;11.20;99.90
30280;DHT22;17097;50.916;5.344;2023-03-14T06:48:50;11.40;99.90
30280;DHT22;17097;50.916;5.344;2023-03-14T06:51:18;11.60;99.90
30280;DHT22;17097;50.916;5.344;2023-03-14T06:53:44;11.60;99.90
30280;DHT22;17097;50.916;5.344;2023-03-14T06:56:10;11.60;99.90
30280;DHT22;17097;50.916;5.344;2023-03-14T06:58:36;11.60;99.90
30280;DHT22;17097;50.916;5.344;2023-03-14T07:01:04;11.60;99.90
30280;DHT22;17097;50.916;5.344;2023-03-14T07:03:32;11.70;99.90
30280;DHT22;17097;50.916;5.344;2023-03-14T07:05:58;11.60;99.90
30280;DHT22;17097;50.916;5.344;2023-03-14T07:08:25;11.70;99.90
30280;DHT22;17097;50.916;5.344;2023-03-14T07:10:56;11.70;99.90
30280;DHT22;17097;50.916;5.344;2023-03-14T07:13:22;11.80;99.90
30280;DHT22;17097;50.916;5.344;2023-03-14T07:15:47;11.90;99.90
30280;DHT22;17097;50.916;5.344;2023-03-14T07:18:13;12.00;99.90
30280;DHT22;17097;50.916;5.344;2023-03-14T07:20:44;12.00;99.90
30280;DHT22;17097;50.916;5.344;2023-03-14T07:23:10;12.00;99.90
30280;DHT22;17097;50.916;5.344;2023-03-14T07:25:36;11.90;99.90
30280;DHT22;17097;50.916;5.344;2023-03-14T07:28:04;11.90;99.90
30280;DHT22;17097;50.916;5.344;2023-03-14T07:30:30;12.00;99.90
30280;DHT22;17097;50.916;5.344;2023-03-14T07:32:56;12.00;99.90
30280;DHT22;17097;50.916;5.344;2023-03-14T07:35:22;11.90;99.90
30280;DHT22;17097;50.916;5.344;2023-03-14T07:37:47;11.80;99.90
30280;DHT22;17097;50.916;5.344;2023-03-14T07:40:13;11.80;99.90
30280;DHT22;17097;50.916;5.344;2023-03-14T07:42:41;11.90;99.90
30280;DHT22;17097;50.916;5.344;2023-03-14T07:45:08;12.00;99.90
30280;DHT22;17097;50.916;5.344;2023-03-14T07:47:35;12.00;99.90
30280;DHT22;17097;50.916;5.344;2023-03-14T07:50:01;11.80;99.90
30280;DHT22;17097;50.916;5.344;2023-03-14T07:52:27;12.00;99.90
30280;DHT22;17097;50.916;5.344;2023-03-14T07:54:53;11.90;99.90
30280;DHT22;17097;50.916;5.344;2023-03-14T07:57:19;11.70;99.90
30280;DHT22;17097;50.916;5.344;2023-03-14T07:59:45;11.30;99.90
30280;DHT22;17097;50.916;5.344;2023-03-14T08:02:11;10.70;99.90
30280;DHT22;17097;50.916;5.344;2023-03-14T08:04:39;10.10;99.90
30280;DHT22;17097;50.916;5.344;2023-03-14T08:07:07;9.80;99.90
30280;DHT22;17097;50.916;5.344;2023-03-14T08:09:33;9.70;99.90
30280;DHT22;17097;50.916;5.344;2023-03-14T08:12:00;9.60;99.90
30280;DHT22;17097;50.916;5.344;2023-03-14T08:14:29;9.30;99.90
30280;DHT22;17097;50.916;5.344;2023-03-14T08:16:56;9.30;99.90
30280;DHT22;17097;50.916;5.344;2023-03-14T08:19:22;9.40;99.90
30280;DHT22;17097;50.916;5.344;2023-03-14T08:21:48;9.30;99.90
30280;DHT22;17097;50.916;5.344;2023-03-14T08:24:14;9.20;99.90
30280;DHT22;17097;50.916;5.344;2023-03-14T08:26:40;9.20;99.90
30280;DHT22;17097;50.916;5.344;2023-03-14T08:29:06;9.10;99.90
30280;DHT22;17097;50.916;5.344;2023-03-14T08:31:34;9.20;99.90
30280;DHT22;17097;50.916;5.344;2023-03-14T08:34:01;9.20;99.90
30280;DHT22;17097;50.916;5.344;2023-03-14T08:36:28;9.10;99.90
30280;DHT22;17097;50.916;5.344;2023-03-14T08:38:54;8.90;99.90
30280;DHT22;17097;50.916;5.344;2023-03-14T08:41:20;8.80;99.90
30280;DHT22;17097;50.916;5.344;2023-03-14T08:43:45;8.70;99.90
30280;DHT22;17097;50.916;5.344;2023-03-14T08:46:11;8.80;99.90
30280;DHT22;17097;50.916;5.344;2023-03-14T08:48:37;8.60;99.90
30280;DHT22;17097;50.916;5.344;2023-03-14T08:51:09;8.60;99.90
30280;DHT22;17097;50.916;5.344;2023-03-14T08:53:36;8.60;99.90
30280;DHT22;17097;50.916;5.344;2023-03-14T08:56:03;8.70;99.90
30280;DHT22;17097;50.916;5.344;2023-03-14T08:58:30;8.70;99.90
30280;DHT22;17097;50.916;5.344;2023-03-14T09:00:57;8.60;99.90
30280;DHT22;17097;50.916;5.344;2023-03-14T09:03:23;8.70;99.90
30280;DHT22;17097;50.916;5.344;2023-03-14T09:05:50;8.80;99.90
30280;DHT22;17097;50.916;5.344;2023-03-14T09:08:16;9.00;99.90
30280;DHT22;17097;50.916;5.344;2023-03-14T09:10:42;9.00;99.90
30280;DHT22;17097;50.916;5.344;2023-03-14T09:13:08;9.10;99.90
30280;DHT22;17097;50.916;5.344;2023-03-14T09:15:34;8.90;99.90
30280;DHT22;17097;50.916;5.344;2023-03-14T09:18:00;8.80;99.90
30280;DHT22;17097;50.916;5.344;2023-03-14T09:20:27;8.90;99.90
30280;DHT22;17097;50.916;5.344;2023-03-14T09:22:52;8.70;99.90
30280;DHT22;17097;50.916;5.344;2023-03-14T09:25:18;8.80;99.90
30280;DHT22;17097;50.916;5.344;2023-03-14T09:27:47;9.00;99.90
30280;DHT22;17097;50.916;5.344;2023-03-14T09:30:13;9.30;99.90
30280;DHT22;17097;50.916;5.344;2023-03-14T09:32:39;9.40;99.90
30280;DHT22;17097;50.916;5.344;2023-03-14T09:35:05;9.40;99.90
30280;DHT22;17097;50.916;5.344;2023-03-14T09:37:32;9.60;99.90
30280;DHT22;17097;50.916;5.344;2023-03-14T09:39:58;9.60;99.90
30280;DHT22;17097;50.916;5.344;2023-03-14T09:42:26;9.50;99.90
30280;DHT22;17097;50.916;5.344;2023-03-14T09:45:05;9.50;99.90
30280;DHT22;17097;50.916;5.344;2023-03-14T09:47:33;9.40;99.90
30280;DHT22;17097;50.916;5.344;2023-03-14T09:50:02;9.30;99.90
30280;DHT22;17097;50.916;5.344;2023-03-14T09:52:36;9.20;99.90
30280;DHT22;17097;50.916;5.344;2023-03-14T09:55:06;9.20;99.90
30280;DHT22;17097;50.916;5.344;2023-03-14T09:57:39;9.20;99.90
30280;DHT22;17097;50.916;5.344;2023-03-14T10:02:42;9.10;99.90
30280;DHT22;17097;50.916;5.344;2023-03-14T10:05:15;9.30;99.90
30280;DHT22;17097;50.916;5.344;2023-03-14T10:07:42;9.40;99.90
30280;DHT22;17097;50.916;5.344;2023-03-14T10:10:15;9.20;99.90
30280;DHT22;17097;50.916;5.344;2023-03-14T10:12:54;9.20;99.90
30280;DHT22;17097;50.916;5.344;2023-03-14T10:15:33;9.20;99.90
30280;DHT22;17097;50.916;5.344;2023-03-14T10:18:01;8.90;99.90
30280;DHT22;17097;50.916;5.344;2023-03-14T10:20:34;8.80;99.90
30280;DHT22;17097;50.916;5.344;2023-03-14T10:23:18;8.90;99.90
30280;DHT22;17097;50.916;5.344;2023-03-14T10:26:23;8.90;99.90
30280;DHT22;17097;50.916;5.344;2023-03-14T10:31:10;8.80;99.90
30280;DHT22;17097;50.916;5.344;2023-03-14T10:33:37;8.60;99.90
30280;DHT22;17097;50.916;5.344;2023-03-14T10:36:05;8.70;99.90
30280;DHT22;17097;50.916;5.344;2023-03-14T10:38:34;8.90;99.90
30280;DHT22;17097;50.916;5.344;2023-03-14T10:41:24;8.90;99.90
30280;DHT22;17097;50.916;5.344;2023-03-14T10:43:56;8.80;99.90
30280;DHT22;17097;50.916;5.344;2023-03-14T10:46:25;8.70;99.90
30280;DHT22;17097;50.916;5.344;2023-03-14T10:48:54;8.70;99.90
30280;DHT22;17097;50.916;5.344;2023-03-14T10:53:59;8.80;99.90
30280;DHT22;17097;50.916;5.344;2023-03-14T10:56:27;8.50;99.90
30280;DHT22;17097;50.916;5.344;2023-03-14T10:58:59;8.20;99.90
30280;DHT22;17097;50.916;5.344;2023-03-14T11:09:58;8.20;99.90
30280;DHT22;17097;50.916;5.344;2023-03-14T11:15:31;8.00;99.90
30280;DHT22;17097;50.916;5.344;2023-03-14T11:21:18;8.30;99.90
30280;DHT22;17097;50.916;5.344;2023-03-14T11:26:26;8.60;99.90
30280;DHT22;17097;50.916;5.344;2023-03-14T11:28:58;8.60;99.90
30280;DHT22;17097;50.916;5.344;2023-03-14T11:31:29;8.90;99.90
30280;DHT22;17097;50.916;5.344;2023-03-14T11:36:46;9.30;99.90
30280;DHT22;17097;50.916;5.344;2023-03-14T11:39:16;9.40;99.90
30280;DHT22;17097;50.916;5.344;2023-03-14T11:41:57;9.40;99.90
30280;DHT22;17097;50.916;5.344;2023-03-14T11:44:39;9.30;99.90
30280;DHT22;17097;50.916;5.344;2023-03-14T11:47:17;9.00;99.90
30280;DHT22;17097;50.916;5.344;2023-03-14T11:52:35;9.10;99.90
30280;DHT22;17097;50.916;5.344;2023-03-14T11:55:13;9.20;99.90
30280;DHT22;17097;50.916;5.344;2023-03-14T11:57:42;9.00;99.90
30280;DHT22;17097;50.916;5.344;2023-03-14T12:00:37;8.90;99.90
30280;DHT22;17097;50.916;5.344;2023-03-14T12:03:59;9.20;99.90
30280;DHT22;17097;50.916;5.344;2023-03-14T12:08:53;9.10;99.90
30280;DHT22;17097;50.916;5.344;2023-03-14T12:11:38;9.10;99.90
30280;DHT22;17097;50.916;5.344;2023-03-14T12:17:04;9.20;99.90
30280;DHT22;17097;50.916;5.344;2023-03-14T12:19:32;9.50;99.90
30280;DHT22;17097;50.916;5.344;2023-03-14T12:24:32;9.90;99.90
30280;DHT22;17097;50.916;5.344;2023-03-14T12:27:00;10.00;99.90
30280;DHT22;17097;50.916;5.344;2023-03-14T12:29:26;10.10;99.90
30280;DHT22;17097;50.916;5.344;2023-03-14T12:32:24;10.20;99.90
30280;DHT22;17097;50.916;5.344;2023-03-14T12:34:53;9.90;99.90
30280;DHT22;17097;50.916;5.344;2023-03-14T12:37:21;9.60;99.90
30280;DHT22;17097;50.916;5.344;2023-03-14T12:40:41;9.30;99.90
30280;DHT22;17097;50.916;5.344;2023-03-14T12:43:01;8.90;99.90
30280;DHT22;17097;50.916;5.344;2023-03-14T12:45:35;8.60;99.90
30280;DHT22;17097;50.916;5.344;2023-03-14T12:48:18;8.60;99.90
30280;DHT22;17097;50.916;5.344;2023-03-14T12:50:55;8.40;99.90
30280;DHT22;17097;50.916;5.344;2023-03-14T12:56:19;8.00;99.90
30280;DHT22;17097;50.916;5.344;2023-03-14T13:01:25;7.80;99.90
30280;DHT22;17097;50.916;5.344;2023-03-14T13:03:52;8.00;99.90
30280;DHT22;17097;50.916;5.344;2023-03-14T13:06:52;8.10;99.90
30280;DHT22;17097;50.916;5.344;2023-03-14T13:12:14;7.70;99.90
30280;DHT22;17097;50.916;5.344;2023-03-14T13:14:48;7.80;99.90
30280;DHT22;17097;50.916;5.344;2023-03-14T13:17:19;7.90;99.90
30280;DHT22;17097;50.916;5.344;2023-03-14T13:19:54;8.00;99.90
30280;DHT22;17097;50.916;5.344;2023-03-14T13:22:24;8.10;99.90
30280;DHT22;17097;50.916;5.344;2023-03-14T13:25:02;8.00;99.90
30280;DHT22;17097;50.916;5.344;2023-03-14T13:27:30;7.80;99.90
30280;DHT22;17097;50.916;5.344;2023-03-14T13:29:57;7.90;99.90
30280;DHT22;17097;50.916;5.344;2023-03-14T13:32:28;8.00;99.90
30280;DHT22;17097;50.916;5.344;2023-03-14T13:35:00;8.20;99.90
30280;DHT22;17097;50.916;5.344;2023-03-14T13:37:26;8.40;99.90
30280;DHT22;17097;50.916;5.344;2023-03-14T13:39:55;8.40;99.90
30280;DHT22;17097;50.916;5.344;2023-03-14T13:42:25;8.40;99.90
30280;DHT22;17097;50.916;5.344;2023-03-14T13:44:53;8.30;99.90
30280;DHT22;17097;50.916;5.344;2023-03-14T13:47:21;8.20;99.90
30280;DHT22;17097;50.916;5.344;2023-03-14T13:49:48;8.10;99.90
30280;DHT22;17097;50.916;5.344;2023-03-14T13:52:32;8.10;99.90
30280;DHT22;17097;50.916;5.344;2023-03-14T13:55:02;8.40;99.90
30280;DHT22;17097;50.916;5.344;2023-03-14T13:57:43;8.40;99.90
30280;DHT22;17097;50.916;5.344;2023-03-14T14:00:22;8.50;99.90
30280;DHT22;17097;50.916;5.344;2023-03-14T14:02:49;8.90;99.90
30280;DHT22;17097;50.916;5.344;2023-03-14T14:05:16;8.80;99.90
30280;DHT22;17097;50.916;5.344;2023-03-14T14:07:43;8.90;99.90
30280;DHT22;17097;50.916;5.344;2023-03-14T14:10:13;9.00;99.90
30280;DHT22;17097;50.916;5.344;2023-03-14T14:12:45;8.90;99.90
30280;DHT22;17097;50.916;5.344;2023-03-14T14:15:27;8.90;99.90
30280;DHT22;17097;50.916;5.344;2023-03-14T14:18:01;8.80;99.90
30280;DHT22;17097;50.916;5.344;2023-03-14T14:20:39;8.60;99.90
30280;DHT22;17097;50.916;5.344;2023-03-14T14:23:14;8.40;99.90
30280;DHT22;17097;50.916;5.344;2023-03-14T14:25:43;8.50;99.90
30280;DHT22;17097;50.916;5.344;2023-03-14T14:28:25;8.60;99.90
30280;DHT22;17097;50.916;5.344;2023-03-14T14:34:01;8.70;99.90
30280;DHT22;17097;50.916;5.344;2023-03-14T14:36:41;8.60;99.90
30280;DHT22;17097;50.916;5.344;2023-03-14T14:39:30;8.50;99.90
30280;DHT22;17097;50.916;5.344;2023-03-14T14:41:57;8.60;99.90
30280;DHT22;17097;50.916;5.344;2023-03-14T14:44:35;8.70;99.90
30280;DHT22;17097;50.916;5.344;2023-03-14T14:47:03;8.70;99.90
30280;DHT22;17097;50.916;5.344;2023-03-14T14:49:30;8.80;99.90
30280;DHT22;17097;50.916;5.344;2023-03-14T14:52:08;8.80;99.90
30280;DHT22;17097;50.916;5.344;2023-03-14T14:54:51;9.00;99.90
30280;DHT22;17097;50.916;5.344;2023-03-14T14:57:27;9.00;99.90
30280;DHT22;17097;50.916;5.344;2023-03-14T14:59:57;8.70;99.90
30280;DHT22;17097;50.916;5.344;2023-03-14T15:02:37;9.00;99.90
30280;DHT22;17097;50.916;5.344;2023-03-14T15:05:14;8.90;99.90
30280;DHT22;17097;50.916;5.344;2023-03-14T15:07:41;8.90;99.90
30280;DHT22;17097;50.916;5.344;2023-03-14T15:10:11;8.90;99.90
30280;DHT22;17097;50.916;5.344;2023-03-14T15:12:43;9.00;99.90
30280;DHT22;17097;50.916;5.344;2023-03-14T15:15:13;9.00;99.90
30280;DHT22;17097;50.916;5.344;2023-03-14T15:17:39;8.90;99.90
30280;DHT22;17097;50.916;5.344;2023-03-14T15:20:09;8.70;99.90
30280;DHT22;17097;50.916;5.344;2023-03-14T15:22:39;8.80;99.90
30280;DHT22;17097;50.916;5.344;2023-03-14T15:25:07;8.90;99.90
30280;DHT22;17097;50.916;5.344;2023-03-14T15:27:33;8.90;99.90
30280;DHT22;17097;50.916;5.344;2023-03-14T15:29:59;8.80;99.90
30280;DHT22;17097;50.916;5.344;2023-03-14T15:32:27;9.00;99.90
30280;DHT22;17097;50.916;5.344;2023-03-14T15:34:56;8.70;99.90
30280;DHT22;17097;50.916;5.344;2023-03-14T15:37:22;8.50;99.90
30280;DHT22;17097;50.916;5.344;2023-03-14T15:39:48;8.50;99.90
30280;DHT22;17097;50.916;5.344;2023-03-14T15:42:16;8.30;99.90
30280;DHT22;17097;50.916;5.344;2023-03-14T15:44:42;8.30;99.90
30280;DHT22;17097;50.916;5.344;2023-03-14T15:47:10;8.10;99.90
30280;DHT22;17097;50.916;5.344;2023-03-14T15:49:35;7.90;99.90
30280;DHT22;17097;50.916;5.344;2023-03-14T15:52:02;7.80;99.90
30280;DHT22;17097;50.916;5.344;2023-03-14T15:54:28;7.70;99.90
30280;DHT22;17097;50.916;5.344;2023-03-14T15:56:55;7.80;99.90
30280;DHT22;17097;50.916;5.344;2023-03-14T15:59:22;7.90;99.90
30280;DHT22;17097;50.916;5.344;2023-03-14T16:01:48;7.70;99.90
30280;DHT22;17097;50.916;5.344;2023-03-14T16:04:14;7.60;99.90
30280;DHT22;17097;50.916;5.344;2023-03-14T16:06:43;7.60;99.90
30280;DHT22;17097;50.916;5.344;2023-03-14T16:09:12;7.70;99.90
30280;DHT22;17097;50.916;5.344;2023-03-14T16:11:41;7.90;99.90
30280;DHT22;17097;50.916;5.344;2023-03-14T16:14:07;8.00;99.90
30280;DHT22;17097;50.916;5.344;2023-03-14T16:16:33;8.20;99.90
30280;DHT22;17097;50.916;5.344;2023-03-14T16:18:58;8.20;99.90
30280;DHT22;17097;50.916;5.344;2023-03-14T16:21:25;8.30;99.90
30280;DHT22;17097;50.916;5.344;2023-03-14T16:23:51;8.40;99.90
30280;DHT22;17097;50.916;5.344;2023-03-14T16:26:19;8.40;99.90
30280;DHT22;17097;50.916;5.344;2023-03-14T16:28:46;8.40;99.90
30280;DHT22;17097;50.916;5.344;2023-03-14T16:31:15;8.30;99.90
30280;DHT22;17097;50.916;5.344;2023-03-14T16:33:41;8.30;99.90
30280;DHT22;17097;50.916;5.344;2023-03-14T16:36:11;8.30;99.90
30280;DHT22;17097;50.916;5.344;2023-03-14T16:38:39;8.40;99.90
30280;DHT22;17097;50.916;5.344;2023-03-14T16:41:11;8.30;99.90
30280;DHT22;17097;50.916;5.344;2023-03-14T16:43:38;8.30;99.90
30280;DHT22;17097;50.916;5.344;2023-03-14T16:46:06;8.30;99.90